Time;durP1;ratioP1;P1;durP2;ratioP2;P2;SDS_P1;SDS_P2;PMS_P1;PMS_P2;Temp;Humidity;BMP_temperature;BMP_pressure;BME280_temperature;BME280_humidity;BME280_pressure;Samples;Min_cycle;Max_cycle;Signal;HPM_P1;HPM_P2
2023/08/27 00:01:02;;;;;;;8.07;3.60;;;;;;;13.60;100.00;100437.41;5024884;28;20446;-85
2023/08/27 00:03:30;;;;;;;6.68;3.50;;;;;;;13.63;100.00;100437.91;5018996;28;20913;-83
2023/08/27 00:06:04;;;;;;;6.55;3.72;;;;;;;13.55;100.00;100442.19;5019520;28;20439;-87
2023/08/27 00:08:38;;;;;;;8.88;3.50;;;;;;;13.50;100.00;100445.81;5018739;28;20432;-84
2023/08/27 00:11:11;;;;;;;7.70;3.80;;;;;;;13.41;100.00;100444.94;5017536;28;20440;-85
2023/08/27 00:13:45;;;;;;;8.27;3.80;;;;;;;13.38;100.00;100448.25;5019689;28;20436;-85
2023/08/27 00:16:14;;;;;;;6.55;3.75;;;;;;;13.36;100.00;100445.03;5036011;28;20425;-85
2023/08/27 00:18:42;;;;;;;8.63;4.03;;;;;;;13.35;100.00;100435.16;5023763;28;20435;-85
2023/08/27 00:21:16;;;;;;;9.35;4.28;;;;;;;13.35;100.00;100440.63;5019850;28;20434;-85
2023/08/27 00:23:50;;;;;;;9.40;3.80;;;;;;;13.35;100.00;100436.00;5033611;28;20435;-84
2023/08/27 00:26:24;;;;;;;9.35;3.80;;;;;;;13.30;100.00;100435.25;5021055;28;20925;-86
2023/08/27 00:28:52;;;;;;;7.53;3.88;;;;;;;13.26;100.00;100433.13;5019594;28;20448;-84
2023/08/27 00:31:20;;;;;;;9.02;3.92;;;;;;;13.23;100.00;100433.75;5022935;28;20429;-86
2023/08/27 00:33:48;;;;;;;7.43;4.07;;;;;;;13.29;100.00;100428.19;5028986;28;20446;-85
2023/08/27 00:36:17;;;;;;;6.80;3.80;;;;;;;13.34;100.00;100428.91;5025131;28;20895;-87
2023/08/27 00:38:51;;;;;;;9.23;4.50;;;;;;;13.23;100.00;100420.09;5021937;28;20432;-85
2023/08/27 00:41:25;;;;;;;7.25;4.20;;;;;;;13.19;100.00;100410.09;5017557;28;20438;-85
2023/08/27 00:43:58;;;;;;;7.18;4.00;;;;;;;13.24;100.00;100410.78;5020238;28;20438;-85
2023/08/27 00:46:32;;;;;;;6.95;4.10;;;;;;;13.15;100.00;100409.06;5018132;28;20435;-87
2023/08/27 00:49:00;;;;;;;8.37;4.07;;;;;;;13.18;100.00;100392.06;5019772;28;20444;-86
2023/08/27 00:51:33;;;;;;;7.72;4.00;;;;;;;13.11;100.00;100387.00;5034782;28;20433;-86
2023/08/27 00:54:08;;;;;;;7.72;4.43;;;;;;;13.07;100.00;100386.00;5025553;28;20438;-85
2023/08/27 00:56:36;;;;;;;10.23;4.00;;;;;;;13.04;100.00;100389.34;5018224;28;20446;-85
2023/08/27 00:59:05;;;;;;;9.35;4.00;;;;;;;13.06;100.00;100387.91;5024176;28;20456;-85
2023/08/27 01:01:40;;;;;;;7.25;4.00;;;;;;;12.97;100.00;100395.19;5023077;28;20468;-84
2023/08/27 01:04:13;;;;;;;8.02;4.20;;;;;;;12.92;100.00;100390.63;5017328;28;20911;-84
2023/08/27 01:06:47;;;;;;;8.90;4.90;;;;;;;12.98;100.00;100380.44;5019482;28;20440;-85
2023/08/27 01:09:25;;;;;;;7.30;4.07;;;;;;;12.89;100.00;100395.91;5020969;28;20427;-85
2023/08/27 01:12:00;;;;;;;10.88;4.22;;;;;;;12.85;100.00;100394.88;5022523;28;20426;-85
2023/08/27 01:14:33;;;;;;;6.95;3.88;;;;;;;12.93;100.00;100403.19;5032196;28;20429;-84
2023/08/27 01:17:08;;;;;;;9.77;4.03;;;;;;;12.86;100.00;100421.09;5033034;28;20432;-85
2023/08/27 01:19:43;;;;;;;9.27;4.22;;;;;;;12.82;100.00;100420.88;5018078;28;20432;-85
2023/08/27 01:22:13;;;;;;;6.95;4.20;;;;;;;12.73;100.00;100418.03;5016423;28;20435;-85
2023/08/27 01:24:41;;;;;;;8.77;4.40;;;;;;;12.80;100.00;100419.53;5018748;28;20901;-85
2023/08/27 01:27:22;;;;;;;8.25;4.03;;;;;;;12.72;100.00;100410.94;5019587;28;20445;-86
2023/08/27 01:30:09;;;;;;;8.40;4.15;;;;;;;12.70;100.00;100398.69;5023840;28;20435;-85
2023/08/27 01:32:48;;;;;;;9.23;4.57;;;;;;;12.80;100.00;100394.97;5025197;28;20525;-85
2023/08/27 01:35:22;;;;;;;7.93;4.28;;;;;;;12.74;100.00;100383.34;5021802;28;20431;-84
2023/08/27 01:37:57;;;;;;;7.35;4.22;;;;;;;12.73;100.00;100384.44;5016436;28;20439;-85
2023/08/27 01:40:30;;;;;;;8.05;4.35;;;;;;;12.81;100.00;100412.97;5017539;28;20498;-83
2023/08/27 01:43:04;;;;;;;8.15;4.20;;;;;;;12.72;100.00;100419.13;5027484;28;20435;-86
2023/08/27 01:45:32;;;;;;;8.27;4.15;;;;;;;12.75;100.00;100423.19;5021034;28;20438;-86
2023/08/27 01:48:05;;;;;;;7.75;4.30;;;;;;;12.86;100.00;100418.34;5021806;28;20450;-85
2023/08/27 01:50:38;;;;;;;7.80;3.92;;;;;;;12.89;100.00;100420.47;5017581;28;20461;-84
2023/08/27 01:53:13;;;;;;;5.93;3.70;;;;;;;12.89;100.00;100418.53;5021992;28;20436;-83
2023/08/27 01:55:43;;;;;;;7.70;4.18;;;;;;;12.86;100.00;100415.63;5021032;28;20429;-86
2023/08/27 01:58:16;;;;;;;6.72;3.45;;;;;;;12.81;100.00;100408.31;5028589;28;20437;-86
2023/08/27 02:00:49;;;;;;;9.20;3.80;;;;;;;12.84;100.00;100391.34;5015882;28;20527;-85
2023/08/27 02:03:19;;;;;;;7.50;4.15;;;;;;;12.89;100.00;100365.84;5037519;28;20427;-85
2023/08/27 02:05:48;;;;;;;8.37;3.90;;;;;;;12.86;100.00;100359.06;5022362;28;20437;-83
2023/08/27 02:08:17;;;;;;;8.07;3.80;;;;;;;12.82;100.00;100352.59;5021375;28;20813;-85
2023/08/27 02:10:49;;;;;;;6.90;3.50;;;;;;;12.86;100.00;100352.81;5023205;28;20435;-86
2023/08/27 02:13:17;;;;;;;6.72;3.72;;;;;;;12.78;100.00;100353.53;5019613;28;20423;-85
2023/08/27 02:15:50;;;;;;;7.80;3.70;;;;;;;12.75;100.00;100354.94;5019403;28;20907;-85
2023/08/27 02:18:18;;;;;;;7.83;3.80;;;;;;;12.78;100.00;100348.84;5034650;28;20430;-84
2023/08/27 02:20:47;;;;;;;8.43;4.13;;;;;;;12.70;100.00;100341.38;5020353;28;20432;-85
2023/08/27 02:23:22;;;;;;;6.80;4.18;;;;;;;12.64;100.00;100326.22;5024606;28;21124;-83
2023/08/27 02:25:50;;;;;;;8.13;4.32;;;;;;;12.59;100.00;100333.38;5030498;28;20866;-85
2023/08/27 02:28:23;;;;;;;7.43;4.30;;;;;;;12.62;100.00;100336.59;5021561;28;20419;-85
2023/08/27 02:30:55;;;;;;;7.75;4.07;;;;;;;12.47;100.00;100335.78;5022050;28;20438;-85
2023/08/27 02:33:28;;;;;;;6.88;4.13;;;;;;;12.55;100.00;100335.09;5016488;28;20842;-85
2023/08/27 02:35:56;;;;;;;9.15;4.38;;;;;;;12.47;100.00;100330.34;5017856;28;20437;-85
2023/08/27 02:38:31;;;;;;;7.38;4.10;;;;;;;12.36;100.00;100335.16;5027448;28;20491;-84
2023/08/27 02:41:04;;;;;;;8.07;4.22;;;;;;;12.41;100.00;100340.53;5024600;28;20432;-86
2023/08/27 02:43:37;;;;;;;7.60;3.87;;;;;;;12.30;100.00;100349.19;5023974;28;21014;-86
2023/08/27 02:46:06;;;;;;;9.23;4.40;;;;;;;12.27;100.00;100356.06;5021854;28;20426;-82
2023/08/27 02:48:34;;;;;;;7.13;4.00;;;;;;;12.24;100.00;100375.75;5019938;28;20439;-85
2023/08/27 02:51:03;;;;;;;8.27;3.90;;;;;;;12.12;100.00;100378.13;5036615;28;20435;-85
2023/08/27 02:53:32;;;;;;;9.20;4.10;;;;;;;12.12;100.00;100350.84;5027412;28;20438;-85
2023/08/27 02:56:07;;;;;;;9.63;4.67;;;;;;;12.13;100.00;100331.47;5034472;28;20451;-86
2023/08/27 02:58:38;;;;;;;8.98;4.68;;;;;;;12.18;100.00;100338.75;5019339;28;20442;-85
2023/08/27 03:01:06;;;;;;;12.27;4.88;;;;;;;12.22;100.00;100337.88;5022222;28;20426;-85
2023/08/27 03:03:39;;;;;;;8.15;4.50;;;;;;;12.21;100.00;100322.59;5024372;28;20435;-85
2023/08/27 03:06:12;;;;;;;10.57;5.13;;;;;;;12.31;100.00;100315.34;5029740;28;20440;-85
2023/08/27 03:08:47;;;;;;;8.77;5.00;;;;;;;12.32;100.00;100323.22;5027448;28;20442;-85
2023/08/27 03:11:20;;;;;;;10.52;5.80;;;;;;;12.30;100.00;100339.06;5020274;28;20752;-85
2023/08/27 03:13:53;;;;;;;7.88;5.30;;;;;;;12.36;100.00;100337.06;5018333;28;20427;-85
2023/08/27 03:16:21;;;;;;;10.13;5.30;;;;;;;12.34;100.00;100337.38;5022554;28;20790;-83
2023/08/27 03:18:55;;;;;;;7.95;5.10;;;;;;;12.37;100.00;100346.88;5023212;28;20439;-85
2023/08/27 03:21:29;;;;;;;9.60;5.18;;;;;;;12.39;100.00;100339.22;5020878;28;20439;-85
2023/08/27 03:24:04;;;;;;;9.63;5.25;;;;;;;12.49;100.00;100330.03;5020921;28;20430;-84
2023/08/27 03:26:37;;;;;;;10.18;5.50;;;;;;;12.47;100.00;100335.78;5018722;28;20811;-86
2023/08/27 03:29:05;;;;;;;8.90;5.18;;;;;;;12.48;100.00;100323.75;5021601;28;20468;-83
2023/08/27 03:31:38;;;;;;;10.48;5.30;;;;;;;12.49;100.00;100311.72;5017439;28;20446;-84
2023/08/27 03:34:12;;;;;;;10.30;5.05;;;;;;;12.50;100.00;100299.69;5033490;28;20427;-87
2023/08/27 03:36:40;;;;;;;9.48;5.20;;;;;;;12.47;100.00;100300.31;5023233;28;20432;-86
2023/08/27 03:39:14;;;;;;;7.40;5.10;;;;;;;12.48;100.00;100292.91;5019218;28;20431;-87
2023/08/27 03:41:48;;;;;;;7.87;4.80;;;;;;;12.44;100.00;100283.72;5029959;28;20434;-87
2023/08/27 03:44:21;;;;;;;8.82;4.72;;;;;;;12.39;100.00;100268.25;5040389;28;20435;-85
2023/08/27 03:46:54;;;;;;;9.00;4.80;;;;;;;12.35;100.00;100272.72;5023074;28;20464;-86
2023/08/27 03:49:27;;;;;;;8.37;4.80;;;;;;;12.38;100.00;100272.09;5021711;28;20439;-87
2023/08/27 03:52:01;;;;;;;8.10;4.68;;;;;;;12.39;100.00;100268.25;5024893;28;20437;-86
2023/08/27 03:54:32;;;;;;;7.93;4.65;;;;;;;12.49;100.00;100269.97;5025568;28;20931;-85
2023/08/27 03:57:05;;;;;;;8.02;4.40;;;;;;;12.51;100.00;100265.84;5016660;28;20431;-86
2023/08/27 03:59:38;;;;;;;7.93;4.68;;;;;;;12.42;100.00;100276.63;5019539;28;20450;-86
2023/08/27 04:02:06;;;;;;;9.35;4.63;;;;;;;12.39;100.00;100277.25;5018493;28;20433;-86
2023/08/27 04:04:35;;;;;;;8.00;4.60;;;;;;;12.36;100.00;100282.50;5026272;28;20907;-85
2023/08/27 04:07:05;;;;;;;7.88;4.90;;;;;;;12.19;100.00;100283.91;5037432;28;20434;-83
2023/08/27 04:09:34;;;;;;;8.80;5.10;;;;;;;12.01;100.00;100280.09;5020462;28;20434;-85
2023/08/27 04:12:08;;;;;;;8.07;4.80;;;;;;;11.83;100.00;100287.19;5018431;28;20447;-86
2023/08/27 04:15:01;;;;;;;7.95;5.20;;;;;;;12.03;100.00;100274.38;5020597;28;20446;-85
2023/08/27 04:17:29;;;;;;;8.35;5.03;;;;;;;11.86;100.00;100272.97;5019719;28;20787;-84
2023/08/27 04:20:03;;;;;;;7.45;4.90;;;;;;;11.76;100.00;100288.69;5024748;28;20433;-85
2023/08/27 04:22:31;;;;;;;8.70;5.18;;;;;;;11.54;100.00;100285.47;5015395;28;20429;-86
2023/08/27 04:25:02;;;;;;;8.05;4.97;;;;;;;11.55;100.00;100289.00;5015818;28;21064;-83
2023/08/27 04:27:30;;;;;;;9.07;5.28;;;;;;;11.72;100.00;100274.84;5017782;28;20442;-86
2023/08/27 04:30:06;;;;;;;9.80;5.38;;;;;;;11.77;100.00;100277.50;5019885;28;20447;-83
2023/08/27 04:32:34;;;;;;;8.13;5.40;;;;;;;11.83;100.00;100273.56;5033006;28;20444;-83
2023/08/27 04:35:08;;;;;;;8.73;5.45;;;;;;;11.75;100.00;100293.31;5019855;28;20449;-86
2023/08/27 04:37:41;;;;;;;9.18;5.22;;;;;;;11.66;100.00;100286.94;5019117;28;20439;-82
2023/08/27 04:40:12;;;;;;;8.60;5.68;;;;;;;11.74;100.00;100284.34;5015987;28;20425;-85
2023/08/27 04:42:41;;;;;;;8.30;5.33;;;;;;;11.80;100.00;100282.34;5021067;28;20629;-86
2023/08/27 04:45:14;;;;;;;10.13;5.90;;;;;;;11.82;100.00;100282.88;5018196;28;20436;-85
2023/08/27 04:47:47;;;;;;;9.82;5.88;;;;;;;11.82;100.00;100287.50;5017770;28;20436;-85
2023/08/27 04:50:17;;;;;;;8.60;5.80;;;;;;;11.85;100.00;100289.66;5018183;28;20466;-85
2023/08/27 04:52:50;;;;;;;9.05;6.10;;;;;;;11.90;100.00;100295.81;5023931;28;20434;-85
2023/08/27 04:55:25;;;;;;;9.52;5.95;;;;;;;11.93;100.00;100294.38;5015576;28;20424;-82
2023/08/27 04:57:58;;;;;;;9.48;6.50;;;;;;;11.90;100.00;100289.53;5019102;28;20432;-83
2023/08/27 05:00:27;;;;;;;9.67;6.40;;;;;;;11.94;100.00;100301.50;5016804;28;20434;-86
2023/08/27 05:02:55;;;;;;;12.13;6.38;;;;;;;11.98;100.00;100302.53;5024244;28;20432;-86
2023/08/27 05:05:25;;;;;;;11.82;6.63;;;;;;;11.95;100.00;100310.50;5017282;28;20429;-84
2023/08/27 05:07:58;;;;;;;10.55;6.22;;;;;;;12.01;100.00;100309.31;5024986;28;20440;-84
2023/08/27 05:10:29;;;;;;;10.77;6.05;;;;;;;12.08;100.00;100309.72;5020160;28;20427;-86
2023/08/27 05:13:03;;;;;;;9.27;6.00;;;;;;;12.09;100.00;100322.25;5016278;28;20431;-85
2023/08/27 05:15:36;;;;;;;10.57;6.40;;;;;;;12.18;100.00;100334.13;5014659;28;23184;-84
2023/08/27 05:18:05;;;;;;;10.25;5.88;;;;;;;12.19;100.00;100322.09;5010414;28;20434;-85
2023/08/27 05:20:38;;;;;;;12.02;6.43;;;;;;;12.23;100.00;100309.44;5013517;28;20447;-85
2023/08/27 05:23:07;;;;;;;10.23;6.40;;;;;;;12.35;100.00;100319.91;5011913;28;20482;-82
2023/08/27 05:25:36;;;;;;;11.88;6.40;;;;;;;12.40;100.00;100310.78;5013666;28;20434;-86
2023/08/27 05:28:05;;;;;;;9.73;6.03;;;;;;;12.51;100.00;100319.59;5016675;28;20440;-82
2023/08/27 05:30:38;;;;;;;10.50;6.30;;;;;;;12.57;100.00;100308.28;5020591;28;20905;-88
2023/08/27 05:33:12;;;;;;;8.55;6.00;;;;;;;12.66;100.00;100302.13;5016600;28;20435;-89
2023/08/27 05:35:45;;;;;;;12.93;6.30;;;;;;;12.66;100.00;100316.59;5020668;28;20441;-86
2023/08/27 05:38:18;;;;;;;9.05;6.07;;;;;;;12.74;100.00;100321.34;5023337;28;21207;-85
2023/08/27 05:40:54;;;;;;;8.73;5.63;;;;;;;12.66;100.00;100319.31;5017258;28;20896;-85
2023/08/27 05:43:24;;;;;;;10.70;5.75;;;;;;;12.75;100.00;100331.16;5020089;28;20438;-86
2023/08/27 05:45:56;;;;;;;9.07;6.05;;;;;;;12.85;100.00;100345.72;5019621;28;20432;-84
2023/08/27 05:48:24;;;;;;;13.50;5.70;;;;;;;12.85;100.00;100340.25;5016324;28;21184;-84
2023/08/27 05:51:00;;;;;;;8.25;5.60;;;;;;;12.95;100.00;100329.13;5016798;28;20938;-86
2023/08/27 05:53:34;;;;;;;9.77;5.70;;;;;;;12.92;100.00;100316.88;5017873;28;20427;-85
2023/08/27 05:56:09;;;;;;;7.22;5.45;;;;;;;12.97;100.00;100301.50;5018184;28;20438;-85
2023/08/27 05:58:42;;;;;;;9.27;6.30;;;;;;;13.04;100.00;100305.44;5015593;28;20432;-85
2023/08/27 06:01:16;;;;;;;8.80;6.20;;;;;;;13.07;100.00;100298.56;5016618;28;20431;-83
2023/08/27 06:03:50;;;;;;;8.95;5.85;;;;;;;13.08;100.00;100297.47;5019726;28;20434;-83
2023/08/27 06:06:18;;;;;;;9.97;6.07;;;;;;;13.14;100.00;100300.88;5016240;28;20435;-84
2023/08/27 06:08:51;;;;;;;9.07;5.95;;;;;;;13.16;100.00;100298.66;5017523;28;20444;-85
2023/08/27 06:11:21;;;;;;;8.63;6.20;;;;;;;13.21;100.00;100307.53;5015016;28;20439;-84
2023/08/27 06:13:54;;;;;;;10.63;6.15;;;;;;;13.18;100.00;100299.97;5024917;28;20438;-82
2023/08/27 06:16:29;;;;;;;9.10;6.53;;;;;;;13.22;100.00;100302.91;5023353;28;20433;-82
2023/08/27 06:19:02;;;;;;;8.35;5.97;;;;;;;13.31;100.00;100297.50;5035600;28;20419;-84
2023/08/27 06:21:36;;;;;;;8.38;6.03;;;;;;;13.24;100.00;100296.00;5022261;28;20911;-84
2023/08/27 06:24:09;;;;;;;10.38;5.82;;;;;;;13.36;100.00;100294.69;5020444;28;20425;-85
2023/08/27 06:26:39;;;;;;;9.23;6.10;;;;;;;13.38;100.00;100282.34;5022270;28;20427;-85
2023/08/27 06:29:12;;;;;;;10.00;5.75;;;;;;;13.39;100.00;100283.94;5018637;28;20424;-84
2023/08/27 06:31:46;;;;;;;10.02;5.90;;;;;;;13.47;100.00;100278.88;5017148;28;20442;-85
2023/08/27 06:34:14;;;;;;;9.93;5.65;;;;;;;13.56;100.00;100272.34;5019525;28;20436;-85
2023/08/27 06:36:47;;;;;;;8.02;5.30;;;;;;;13.48;100.00;100283.19;5014366;28;21026;-85
2023/08/27 06:39:20;;;;;;;10.57;5.53;;;;;;;13.53;100.00;100280.34;5032052;28;20426;-84
2023/08/27 06:41:56;;;;;;;8.60;5.50;;;;;;;13.63;100.00;100284.78;5018792;28;20423;-84
2023/08/27 06:44:32;;;;;;;8.18;5.80;;;;;;;13.66;100.00;100275.94;5017928;28;20434;-86
2023/08/27 06:47:01;;;;;;;9.60;6.45;;;;;;;13.69;100.00;100270.66;5018800;28;20440;-84
2023/08/27 06:49:34;;;;;;;10.43;6.60;;;;;;;13.72;100.00;100272.78;5017788;28;20434;-85
2023/08/27 06:52:09;;;;;;;10.75;6.72;;;;;;;13.71;100.00;100267.63;5014977;28;20429;-85
2023/08/27 06:54:42;;;;;;;10.68;6.50;;;;;;;13.80;100.00;100273.19;5020114;28;20418;-85
2023/08/27 06:57:17;;;;;;;9.35;6.32;;;;;;;13.86;100.00;100275.44;5032795;28;20425;-85
2023/08/27 06:59:45;;;;;;;9.13;6.13;;;;;;;13.90;100.00;100279.16;5026012;28;20477;-86
2023/08/27 07:02:18;;;;;;;10.33;6.30;;;;;;;13.95;100.00;100276.31;5017813;28;20432;-85
2023/08/27 07:04:51;;;;;;;10.60;6.65;;;;;;;14.00;100.00;100272.63;5025072;28;20423;-83
2023/08/27 07:07:26;;;;;;;9.38;6.18;;;;;;;13.99;100.00;100281.16;5017365;28;20437;-84
2023/08/27 07:09:59;;;;;;;11.13;6.17;;;;;;;14.00;100.00;100269.09;5021361;28;20423;-86
2023/08/27 07:12:34;;;;;;;8.82;6.00;;;;;;;14.03;100.00;100271.19;5025469;28;20434;-84
2023/08/27 07:15:08;;;;;;;10.77;6.43;;;;;;;14.08;100.00;100251.94;5023924;28;20959;-84
2023/08/27 07:17:38;;;;;;;9.63;6.40;;;;;;;14.09;100.00;100253.53;5019820;28;20425;-83
2023/08/27 07:20:09;;;;;;;9.25;5.95;;;;;;;14.03;100.00;100254.78;5018346;28;20435;-82
2023/08/27 07:22:42;;;;;;;8.73;6.18;;;;;;;13.90;100.00;100249.09;5016723;28;20415;-85
2023/08/27 07:25:16;;;;;;;10.48;6.20;;;;;;;13.83;100.00;100253.41;5022616;28;20431;-85
2023/08/27 07:27:51;;;;;;;9.25;6.40;;;;;;;13.78;100.00;100246.94;5022499;28;20449;-85
2023/08/27 07:30:24;;;;;;;9.23;6.30;;;;;;;13.73;100.00;100241.59;5017146;28;20437;-85
2023/08/27 07:32:57;;;;;;;10.53;6.33;;;;;;;13.91;100.00;100241.69;5020263;28;20813;-84
2023/08/27 07:35:25;;;;;;;9.50;6.47;;;;;;;14.08;100.00;100236.31;5036821;28;20439;-86
2023/08/27 07:37:54;;;;;;;8.55;6.63;;;;;;;14.20;100.00;100232.19;5024127;28;20922;-85
2023/08/27 07:40:27;;;;;;;10.30;6.28;;;;;;;14.33;100.00;100244.94;5038641;28;20431;-86
2023/08/27 07:43:02;;;;;;;8.68;5.93;;;;;;;14.53;100.00;100242.75;5022213;28;20446;-84
2023/08/27 07:45:36;;;;;;;8.93;5.93;;;;;;;14.50;100.00;100246.16;5026371;28;20440;-85
2023/08/27 07:48:09;;;;;;;9.55;5.88;;;;;;;14.49;100.00;100247.28;5032189;28;20792;-86
2023/08/27 07:50:39;;;;;;;8.70;5.93;;;;;;;14.52;100.00;100257.59;5035626;28;20896;-85
2023/08/27 07:53:13;;;;;;;9.05;6.05;;;;;;;14.52;100.00;100265.81;5016842;28;20427;-84
2023/08/27 07:55:41;;;;;;;9.55;5.80;;;;;;;14.50;100.00;100257.91;5017705;28;20441;-84
2023/08/27 07:58:16;;;;;;;8.27;5.53;;;;;;;14.55;100.00;100259.69;5019582;28;20504;-85
2023/08/27 08:00:49;;;;;;;8.18;5.93;;;;;;;14.58;100.00;100261.78;5026510;28;20441;-83
2023/08/27 08:03:17;;;;;;;9.80;5.50;;;;;;;14.54;100.00;100258.91;5015840;28;20421;-85
2023/08/27 08:05:50;;;;;;;8.45;5.28;;;;;;;14.58;100.00;100259.88;5020643;28;20443;-84
2023/08/27 08:08:23;;;;;;;10.18;5.43;;;;;;;14.69;100.00;100245.91;5016796;28;20436;-83
2023/08/27 08:10:55;;;;;;;8.63;5.13;;;;;;;14.74;100.00;100254.00;5019195;28;20439;-83
2023/08/27 08:13:32;;;;;;;8.48;5.20;;;;;;;14.77;100.00;100239.66;5021813;28;20434;-83
2023/08/27 08:16:00;;;;;;;8.15;5.22;;;;;;;14.79;100.00;100237.41;5036771;28;20431;-84
2023/08/27 08:18:28;;;;;;;9.03;5.53;;;;;;;14.89;100.00;100244.53;5025957;28;20422;-85
2023/08/27 08:20:58;;;;;;;8.80;5.50;;;;;;;14.86;100.00;100254.19;5025235;28;20446;-84
2023/08/27 08:23:32;;;;;;;9.23;5.20;;;;;;;14.92;100.00;100271.28;5020258;28;20458;-85
2023/08/27 08:26:06;;;;;;;9.52;5.75;;;;;;;14.84;100.00;100259.16;5023491;28;20818;-83
2023/08/27 08:28:40;;;;;;;8.00;5.47;;;;;;;14.84;100.00;100255.63;5020297;28;20432;-84
2023/08/27 08:31:09;;;;;;;8.57;5.23;;;;;;;14.93;100.00;100261.94;5019974;28;20438;-85
2023/08/27 08:33:37;;;;;;;8.02;5.35;;;;;;;14.93;100.00;100268.22;5020455;28;20435;-85
2023/08/27 08:36:05;;;;;;;8.80;5.90;;;;;;;15.07;100.00;100262.59;5021928;28;20442;-84
2023/08/27 08:38:34;;;;;;;8.35;5.35;;;;;;;15.20;100.00;100252.59;5022395;28;20436;-86
2023/08/27 08:41:10;;;;;;;9.32;5.90;;;;;;;15.44;100.00;100248.59;5023021;28;20965;-84
2023/08/27 08:43:47;;;;;;;9.60;5.53;;;;;;;15.56;100.00;100264.38;5023792;28;20438;-85
2023/08/27 08:46:20;;;;;;;12.07;5.28;;;;;;;15.74;100.00;100271.47;5023844;28;20435;-84
2023/08/27 08:48:55;;;;;;;9.03;4.97;;;;;;;15.68;100.00;100266.47;5019917;28;20468;-86
2023/08/27 08:51:29;;;;;;;9.90;5.35;;;;;;;15.63;100.00;100250.97;5015219;28;20431;-84
2023/08/27 08:54:03;;;;;;;9.33;5.23;;;;;;;15.70;100.00;100218.41;5021101;28;21081;-86
2023/08/27 08:56:37;;;;;;;8.35;5.20;;;;;;;15.87;100.00;100219.50;5030578;28;20427;-86
2023/08/27 08:59:07;;;;;;;8.30;5.40;;;;;;;16.01;100.00;100216.56;5018268;28;20439;-86
2023/08/27 09:01:36;;;;;;;9.07;5.00;;;;;;;15.92;100.00;100217.41;5016061;28;20442;-87
2023/08/27 09:04:10;;;;;;;6.97;4.70;;;;;;;15.87;100.00;100214.00;5020036;28;20435;-87
2023/08/27 09:06:45;;;;;;;8.30;5.03;;;;;;;15.86;100.00;100207.72;5019143;28;20438;-85
2023/08/27 09:09:14;;;;;;;7.93;4.97;;;;;;;15.90;100.00;100216.91;5018152;28;20414;-87
2023/08/27 09:11:44;;;;;;;9.57;5.15;;;;;;;15.88;100.00;100218.38;5021461;28;20434;-86
2023/08/27 09:14:15;;;;;;;10.55;5.20;;;;;;;16.09;100.00;100205.56;5019147;28;20422;-87
2023/08/27 09:16:48;;;;;;;8.65;4.97;;;;;;;16.10;100.00;100209.09;5016509;28;20893;-85
2023/08/27 09:19:16;;;;;;;8.13;4.80;;;;;;;16.36;100.00;100208.19;5019101;28;20461;-85
2023/08/27 09:21:50;;;;;;;6.63;4.20;;;;;;;16.58;100.00;100215.34;5032491;28;20929;-85
2023/08/27 09:24:23;;;;;;;9.27;4.45;;;;;;;16.65;100.00;100210.13;5013214;28;20432;-87
2023/08/27 09:26:56;;;;;;;6.77;4.50;;;;;;;16.86;100.00;100221.13;5022392;28;20430;-86
2023/08/27 09:29:33;;;;;;;8.60;4.90;;;;;;;16.93;100.00;100199.47;5022189;28;20431;-86
2023/08/27 09:32:06;;;;;;;7.38;4.65;;;;;;;17.02;100.00;100209.59;5029032;28;20434;-86
2023/08/27 09:34:39;;;;;;;6.63;3.90;;;;;;;17.03;100.00;100233.19;5019928;28;20451;-86
2023/08/27 09:37:08;;;;;;;8.88;4.50;;;;;;;17.02;100.00;100223.34;5040532;28;20462;-85
2023/08/27 09:39:44;;;;;;;9.25;4.25;;;;;;;17.12;100.00;100225.69;5023740;28;21425;-86
2023/08/27 09:42:17;;;;;;;7.40;4.00;;;;;;;17.14;100.00;100229.72;5032024;28;20437;-85
2023/08/27 09:44:51;;;;;;;7.00;4.22;;;;;;;17.20;100.00;100241.31;5021800;28;20979;-87
2023/08/27 09:47:30;;;;;;;8.13;4.28;;;;;;;17.21;100.00;100228.34;5021529;28;20422;-86
2023/08/27 09:50:05;;;;;;;7.55;4.68;;;;;;;17.23;100.00;100220.59;5022603;28;20446;-87
2023/08/27 09:52:34;;;;;;;7.40;4.72;;;;;;;17.39;100.00;100212.53;5025883;28;20426;-87
2023/08/27 09:55:02;;;;;;;8.55;4.50;;;;;;;17.42;100.00;100214.59;5026381;28;20434;-86
2023/08/27 09:57:35;;;;;;;8.00;4.30;;;;;;;17.54;100.00;100211.09;5019503;28;20421;-85
2023/08/27 10:00:10;;;;;;;7.03;4.30;;;;;;;17.51;100.00;100207.88;5017718;28;20436;-86
2023/08/27 10:02:44;;;;;;;6.65;4.20;;;;;;;17.60;100.00;100213.28;5030880;28;20500;-85
2023/08/27 10:05:12;;;;;;;7.70;4.70;;;;;;;17.72;100.00;100212.53;5036538;28;20435;-86
2023/08/27 10:07:56;;;;;;;9.03;4.70;;;;;;;17.70;100.00;100214.00;5031429;28;20788;-85
2023/08/27 10:10:31;;;;;;;7.07;4.00;;;;;;;17.80;100.00;100197.88;5020310;28;20428;-87
2023/08/27 10:13:06;;;;;;;6.63;3.70;;;;;;;17.96;100.00;100191.75;5023199;28;20427;-85
2023/08/27 10:15:36;;;;;;;9.05;3.70;;;;;;;17.93;100.00;100193.22;5029269;28;20430;-85
2023/08/27 10:18:13;;;;;;;8.95;3.63;;;;;;;17.99;100.00;100189.13;5021210;28;20425;-85
2023/08/27 10:20:42;;;;;;;6.47;3.78;;;;;;;18.04;100.00;100196.34;5038539;28;20442;-86
2023/08/27 10:23:17;;;;;;;6.35;3.80;;;;;;;18.13;100.00;100185.22;5023567;28;20800;-85
2023/08/27 10:25:54;;;;;;;8.48;3.70;;;;;;;18.26;100.00;100186.81;5022014;28;20428;-86
2023/08/27 10:28:28;;;;;;;7.60;3.70;;;;;;;18.44;100.00;100187.41;5027225;28;20423;-86
2023/08/27 10:31:03;;;;;;;6.45;3.53;;;;;;;18.44;100.00;100186.59;5022235;28;20435;-85
2023/08/27 10:33:37;;;;;;;6.63;3.53;;;;;;;18.56;100.00;100185.78;5020081;28;20449;-86
2023/08/27 10:36:13;;;;;;;8.48;3.80;;;;;;;18.52;100.00;100178.22;5021552;28;20447;-86
2023/08/27 10:38:49;;;;;;;6.63;3.58;;;;;;;18.49;100.00;100167.06;5025624;28;20931;-86
2023/08/27 10:41:24;;;;;;;7.50;3.80;;;;;;;18.62;100.00;100162.38;5025849;28;20433;-86
2023/08/27 10:43:52;;;;;;;8.23;3.90;;;;;;;18.76;100.00;100164.75;5025466;28;20434;-87
2023/08/27 10:46:27;;;;;;;8.10;3.75;;;;;;;18.80;100.00;100162.91;5021620;28;20445;-86
2023/08/27 10:49:00;;;;;;;6.57;3.88;;;;;;;18.84;100.00;100164.59;5020554;28;20421;-87
2023/08/27 10:51:34;;;;;;;6.03;3.40;;;;;;;19.10;100.00;100155.13;5021683;28;20426;-86
2023/08/27 10:54:07;;;;;;;5.85;3.40;;;;;;;18.97;100.00;100159.88;5019973;28;20430;-87
2023/08/27 10:56:37;;;;;;;6.78;3.60;;;;;;;19.00;100.00;100153.69;5023121;28;20423;-87
2023/08/27 10:59:11;;;;;;;7.55;3.55;;;;;;;19.00;100.00;100144.59;5024646;28;20447;-87
2023/08/27 11:02:07;;;;;;;7.88;3.58;;;;;;;19.01;100.00;100143.44;5023015;28;20871;-85
2023/08/27 11:04:42;;;;;;;6.70;3.30;;;;;;;18.89;100.00;100137.97;5016647;28;20521;-86
2023/08/27 11:07:11;;;;;;;7.27;3.40;;;;;;;18.77;100.00;100138.78;5036044;28;20448;-86
2023/08/27 11:09:47;;;;;;;6.10;2.92;;;;;;;18.76;100.00;100134.41;5020234;28;20424;-84
2023/08/27 11:12:25;;;;;;;5.88;2.92;;;;;;;18.93;100.00;100136.91;5034833;28;20440;-86
2023/08/27 11:15:12;;;;;;;8.82;3.40;;;;;;;19.02;100.00;100132.06;5024187;28;20429;-86
2023/08/27 11:17:42;;;;;;;7.18;3.35;;;;;;;19.17;100.00;100133.25;5018911;28;21207;-85
2023/08/27 11:20:22;;;;;;;6.53;3.40;;;;;;;19.26;100.00;100124.81;5021553;28;20431;-87
2023/08/27 11:22:55;;;;;;;7.20;3.85;;;;;;;19.30;100.00;100128.47;5025074;28;20418;-86
2023/08/27 11:25:26;;;;;;;8.13;3.50;;;;;;;19.17;100.00;100130.50;5019778;28;20446;-86
2023/08/27 11:27:54;;;;;;;5.75;3.25;;;;;;;19.08;100.00;100129.84;5025915;28;20438;-87
2023/08/27 11:30:28;;;;;;;5.88;3.40;;;;;;;19.18;100.00;100136.81;5025984;28;20438;-87
2023/08/27 11:32:58;;;;;;;5.88;3.60;;;;;;;19.24;100.00;100126.31;5030232;28;20441;-83
2023/08/27 11:35:31;;;;;;;11.60;3.97;;;;;;;19.10;100.00;100137.78;5020075;28;20444;-84
2023/08/27 11:38:10;;;;;;;8.03;4.00;;;;;;;19.09;100.00;100136.97;5022223;28;20427;-87
2023/08/27 11:40:43;;;;;;;6.30;3.42;;;;;;;18.97;100.00;100135.06;5023308;28;20423;-87